sensor_id;sensor_type;location;lat;lon;timestamp;temperature;humidity
2106;DHT22;1059;52.548;13.408;2023-01-15T00:01:43;9.00;99.90
2106;DHT22;1059;52.548;13.408;2023-01-15T00:04:11;9.00;99.90
2106;DHT22;1059;52.548;13.408;2023-01-15T00:06:40;9.10;99.90
2106;DHT22;1059;52.548;13.408;2023-01-15T00:09:09;9.10;99.90
2106;DHT22;1059;52.548;13.408;2023-01-15T00:11:37;9.10;99.90
2106;DHT22;1059;52.548;13.408;2023-01-15T00:14:04;9.20;99.90
2106;DHT22;1059;52.548;13.408;2023-01-15T00:16:31;9.20;99.90
2106;DHT22;1059;52.548;13.408;2023-01-15T00:18:59;9.20;99.90
2106;DHT22;1059;52.548;13.408;2023-01-15T00:21:31;9.20;99.90
2106;DHT22;1059;52.548;13.408;2023-01-15T00:23:57;9.20;99.90
2106;DHT22;1059;52.548;13.408;2023-01-15T00:26:42;9.20;99.90
2106;DHT22;1059;52.548;13.408;2023-01-15T00:29:26;9.20;99.90
2106;DHT22;1059;52.548;13.408;2023-01-15T00:31:55;9.20;99.90
2106;DHT22;1059;52.548;13.408;2023-01-15T00:34:23;9.30;99.90
2106;DHT22;1059;52.548;13.408;2023-01-15T00:36:51;9.20;99.90
2106;DHT22;1059;52.548;13.408;2023-01-15T00:39:18;9.20;99.90
2106;DHT22;1059;52.548;13.408;2023-01-15T00:41:46;9.20;99.90
2106;DHT22;1059;52.548;13.408;2023-01-15T00:44:13;9.20;99.90
2106;DHT22;1059;52.548;13.408;2023-01-15T00:46:39;9.30;99.90
2106;DHT22;1059;52.548;13.408;2023-01-15T00:49:06;9.30;99.90
2106;DHT22;1059;52.548;13.408;2023-01-15T00:51:34;9.30;99.90
2106;DHT22;1059;52.548;13.408;2023-01-15T00:54:02;9.30;99.90
2106;DHT22;1059;52.548;13.408;2023-01-15T00:56:29;9.30;99.90
2106;DHT22;1059;52.548;13.408;2023-01-15T00:58:56;9.30;99.90
2106;DHT22;1059;52.548;13.408;2023-01-15T01:01:24;9.40;99.90
2106;DHT22;1059;52.548;13.408;2023-01-15T01:03:51;9.40;99.90
2106;DHT22;1059;52.548;13.408;2023-01-15T01:06:19;9.40;99.90
2106;DHT22;1059;52.548;13.408;2023-01-15T01:08:47;9.30;99.90
2106;DHT22;1059;52.548;13.408;2023-01-15T01:11:16;9.30;99.90
2106;DHT22;1059;52.548;13.408;2023-01-15T01:13:44;9.40;99.90
2106;DHT22;1059;52.548;13.408;2023-01-15T01:16:29;9.30;99.90
2106;DHT22;1059;52.548;13.408;2023-01-15T01:18:59;9.40;99.90
2106;DHT22;1059;52.548;13.408;2023-01-15T01:21:26;9.40;99.90
2106;DHT22;1059;52.548;13.408;2023-01-15T01:23:54;9.40;99.90
2106;DHT22;1059;52.548;13.408;2023-01-15T01:26:22;9.50;99.90
2106;DHT22;1059;52.548;13.408;2023-01-15T01:28:50;9.50;99.90
2106;DHT22;1059;52.548;13.408;2023-01-15T01:31:18;9.50;99.90
2106;DHT22;1059;52.548;13.408;2023-01-15T01:33:47;9.50;99.90
2106;DHT22;1059;52.548;13.408;2023-01-15T01:36:15;9.50;99.90
2106;DHT22;1059;52.548;13.408;2023-01-15T01:38:42;9.60;99.90
2106;DHT22;1059;52.548;13.408;2023-01-15T01:41:09;9.60;99.90
2106;DHT22;1059;52.548;13.408;2023-01-15T01:43:54;9.60;99.90
2106;DHT22;1059;52.548;13.408;2023-01-15T01:46:21;9.60;99.90
2106;DHT22;1059;52.548;13.408;2023-01-15T01:48:51;9.60;99.90
2106;DHT22;1059;52.548;13.408;2023-01-15T01:51:21;9.60;99.90
2106;DHT22;1059;52.548;13.408;2023-01-15T01:53:50;9.60;99.90
2106;DHT22;1059;52.548;13.408;2023-01-15T01:56:18;9.60;99.90
2106;DHT22;1059;52.548;13.408;2023-01-15T01:58:46;9.60;99.90
2106;DHT22;1059;52.548;13.408;2023-01-15T02:01:15;9.60;99.90
2106;DHT22;1059;52.548;13.408;2023-01-15T02:03:42;9.50;99.90
2106;DHT22;1059;52.548;13.408;2023-01-15T02:06:12;9.50;99.90
2106;DHT22;1059;52.548;13.408;2023-01-15T02:08:39;9.50;99.90
2106;DHT22;1059;52.548;13.408;2023-01-15T02:11:11;9.50;99.90
2106;DHT22;1059;52.548;13.408;2023-01-15T02:13:44;9.40;99.90
2106;DHT22;1059;52.548;13.408;2023-01-15T02:16:20;9.40;99.90
2106;DHT22;1059;52.548;13.408;2023-01-15T02:18:53;9.40;99.90
2106;DHT22;1059;52.548;13.408;2023-01-15T02:21:25;9.40;99.90
2106;DHT22;1059;52.548;13.408;2023-01-15T02:24:06;9.40;99.90
2106;DHT22;1059;52.548;13.408;2023-01-15T02:27:04;9.30;99.90
2106;DHT22;1059;52.548;13.408;2023-01-15T02:29:40;9.30;99.90
2106;DHT22;1059;52.548;13.408;2023-01-15T02:32:12;9.20;99.90
2106;DHT22;1059;52.548;13.408;2023-01-15T02:34:43;9.20;99.90
2106;DHT22;1059;52.548;13.408;2023-01-15T02:37:13;9.20;99.90
2106;DHT22;1059;52.548;13.408;2023-01-15T02:39:43;9.10;99.90
2106;DHT22;1059;52.548;13.408;2023-01-15T02:42:15;9.20;99.90
2106;DHT22;1059;52.548;13.408;2023-01-15T02:44:46;9.10;99.90
2106;DHT22;1059;52.548;13.408;2023-01-15T02:47:15;9.10;99.90
2106;DHT22;1059;52.548;13.408;2023-01-15T02:49:45;9.10;99.90
2106;DHT22;1059;52.548;13.408;2023-01-15T02:52:17;9.10;99.90
2106;DHT22;1059;52.548;13.408;2023-01-15T02:54:50;9.10;99.90
2106;DHT22;1059;52.548;13.408;2023-01-15T02:57:20;9.10;99.90
2106;DHT22;1059;52.548;13.408;2023-01-15T02:59:49;9.10;99.90
2106;DHT22;1059;52.548;13.408;2023-01-15T03:02:19;9.00;99.90
2106;DHT22;1059;52.548;13.408;2023-01-15T03:04:53;9.00;99.90
2106;DHT22;1059;52.548;13.408;2023-01-15T03:07:24;9.10;99.90
2106;DHT22;1059;52.548;13.408;2023-01-15T03:09:53;9.00;99.90
2106;DHT22;1059;52.548;13.408;2023-01-15T03:12:25;9.10;99.90
2106;DHT22;1059;52.548;13.408;2023-01-15T03:14:59;9.10;99.90
2106;DHT22;1059;52.548;13.408;2023-01-15T03:17:35;9.00;99.90
2106;DHT22;1059;52.548;13.408;2023-01-15T03:20:07;9.10;99.90
2106;DHT22;1059;52.548;13.408;2023-01-15T03:22:38;9.10;99.90
2106;DHT22;1059;52.548;13.408;2023-01-15T03:25:09;9.10;99.90
2106;DHT22;1059;52.548;13.408;2023-01-15T03:27:38;9.00;99.90
2106;DHT22;1059;52.548;13.408;2023-01-15T03:30:10;9.10;99.90
2106;DHT22;1059;52.548;13.408;2023-01-15T03:32:37;9.10;99.90
2106;DHT22;1059;52.548;13.408;2023-01-15T03:35:05;9.10;99.90
2106;DHT22;1059;52.548;13.408;2023-01-15T03:37:35;9.00;99.90
2106;DHT22;1059;52.548;13.408;2023-01-15T03:40:03;9.10;99.90
2106;DHT22;1059;52.548;13.408;2023-01-15T03:42:41;9.10;99.90
2106;DHT22;1059;52.548;13.408;2023-01-15T03:45:14;9.10;99.90
2106;DHT22;1059;52.548;13.408;2023-01-15T03:47:49;9.10;99.90
2106;DHT22;1059;52.548;13.408;2023-01-15T03:50:22;9.10;99.90
2106;DHT22;1059;52.548;13.408;2023-01-15T03:52:57;9.10;99.90
2106;DHT22;1059;52.548;13.408;2023-01-15T03:55:35;9.10;99.90
2106;DHT22;1059;52.548;13.408;2023-01-15T03:58:08;9.10;99.90
2106;DHT22;1059;52.548;13.408;2023-01-15T04:00:42;9.10;99.90
2106;DHT22;1059;52.548;13.408;2023-01-15T04:03:10;9.10;99.90
2106;DHT22;1059;52.548;13.408;2023-01-15T04:05:40;9.10;99.90
2106;DHT22;1059;52.548;13.408;2023-01-15T04:08:08;9.20;99.90
2106;DHT22;1059;52.548;13.408;2023-01-15T04:10:35;9.10;99.90
2106;DHT22;1059;52.548;13.408;2023-01-15T04:13:01;8.90;99.90
2106;DHT22;1059;52.548;13.408;2023-01-15T04:15:30;8.70;99.90
2106;DHT22;1059;52.548;13.408;2023-01-15T04:17:57;8.40;99.90
2106;DHT22;1059;52.548;13.408;2023-01-15T04:20:23;8.20;99.90
2106;DHT22;1059;52.548;13.408;2023-01-15T04:22:50;8.10;99.90
2106;DHT22;1059;52.548;13.408;2023-01-15T04:25:17;8.00;99.90
2106;DHT22;1059;52.548;13.408;2023-01-15T04:27:44;7.80;99.90
2106;DHT22;1059;52.548;13.408;2023-01-15T04:30:11;7.60;99.90
2106;DHT22;1059;52.548;13.408;2023-01-15T04:32:43;7.40;99.90
2106;DHT22;1059;52.548;13.408;2023-01-15T04:35:10;7.20;99.90
2106;DHT22;1059;52.548;13.408;2023-01-15T04:37:36;6.90;99.90
2106;DHT22;1059;52.548;13.408;2023-01-15T04:40:04;6.70;99.90
2106;DHT22;1059;52.548;13.408;2023-01-15T04:42:31;6.60;99.90
2106;DHT22;1059;52.548;13.408;2023-01-15T04:45:15;6.40;99.90
2106;DHT22;1059;52.548;13.408;2023-01-15T04:47:43;6.30;99.90
2106;DHT22;1059;52.548;13.408;2023-01-15T04:50:10;6.20;99.90
2106;DHT22;1059;52.548;13.408;2023-01-15T04:52:37;6.20;99.90
2106;DHT22;1059;52.548;13.408;2023-01-15T04:55:05;6.10;99.90
2106;DHT22;1059;52.548;13.408;2023-01-15T04:57:31;6.10;99.90
2106;DHT22;1059;52.548;13.408;2023-01-15T04:59:59;6.00;99.90
2106;DHT22;1059;52.548;13.408;2023-01-15T05:02:26;6.00;99.90
2106;DHT22;1059;52.548;13.408;2023-01-15T05:04:54;6.00;99.90
2106;DHT22;1059;52.548;13.408;2023-01-15T05:07:21;6.00;99.90
2106;DHT22;1059;52.548;13.408;2023-01-15T05:09:48;6.00;99.90
2106;DHT22;1059;52.548;13.408;2023-01-15T05:12:17;6.00;99.90
2106;DHT22;1059;52.548;13.408;2023-01-15T05:14:44;6.00;99.90
2106;DHT22;1059;52.548;13.408;2023-01-15T05:17:10;6.00;99.90
2106;DHT22;1059;52.548;13.408;2023-01-15T05:19:37;6.00;99.90
2106;DHT22;1059;52.548;13.408;2023-01-15T05:22:06;6.00;99.90
2106;DHT22;1059;52.548;13.408;2023-01-15T05:24:32;6.00;99.90
2106;DHT22;1059;52.548;13.408;2023-01-15T05:26:59;6.00;99.90
2106;DHT22;1059;52.548;13.408;2023-01-15T05:29:27;6.00;99.90
2106;DHT22;1059;52.548;13.408;2023-01-15T05:31:54;6.00;99.90
2106;DHT22;1059;52.548;13.408;2023-01-15T05:34:20;6.00;99.90
2106;DHT22;1059;52.548;13.408;2023-01-15T05:36:47;6.00;99.90
2106;DHT22;1059;52.548;13.408;2023-01-15T05:39:15;6.00;99.90
2106;DHT22;1059;52.548;13.408;2023-01-15T05:41:42;6.00;99.90
2106;DHT22;1059;52.548;13.408;2023-01-15T05:44:17;6.00;99.90
2106;DHT22;1059;52.548;13.408;2023-01-15T05:46:45;6.00;99.90
2106;DHT22;1059;52.548;13.408;2023-01-15T05:49:14;6.10;99.90
2106;DHT22;1059;52.548;13.408;2023-01-15T05:51:41;6.10;99.90
2106;DHT22;1059;52.548;13.408;2023-01-15T05:54:12;6.10;99.90
2106;DHT22;1059;52.548;13.408;2023-01-15T05:56:41;6.10;99.90
2106;DHT22;1059;52.548;13.408;2023-01-15T05:59:10;6.10;99.90
2106;DHT22;1059;52.548;13.408;2023-01-15T06:01:37;6.10;99.90
2106;DHT22;1059;52.548;13.408;2023-01-15T06:04:06;6.20;99.90
2106;DHT22;1059;52.548;13.408;2023-01-15T06:06:33;6.20;99.90
2106;DHT22;1059;52.548;13.408;2023-01-15T06:09:02;6.20;99.90
2106;DHT22;1059;52.548;13.408;2023-01-15T06:11:29;6.20;99.90
2106;DHT22;1059;52.548;13.408;2023-01-15T06:13:57;6.20;99.90
2106;DHT22;1059;52.548;13.408;2023-01-15T06:16:24;6.30;99.90
2106;DHT22;1059;52.548;13.408;2023-01-15T06:18:51;6.30;99.90
2106;DHT22;1059;52.548;13.408;2023-01-15T06:21:18;6.30;99.90
2106;DHT22;1059;52.548;13.408;2023-01-15T06:23:45;6.30;99.90
2106;DHT22;1059;52.548;13.408;2023-01-15T06:26:14;6.40;99.90
2106;DHT22;1059;52.548;13.408;2023-01-15T06:28:41;6.40;99.90
2106;DHT22;1059;52.548;13.408;2023-01-15T06:31:11;6.40;99.90
2106;DHT22;1059;52.548;13.408;2023-01-15T06:33:39;6.50;99.90
2106;DHT22;1059;52.548;13.408;2023-01-15T06:36:07;6.50;99.90
2106;DHT22;1059;52.548;13.408;2023-01-15T06:38:36;6.50;99.90
2106;DHT22;1059;52.548;13.408;2023-01-15T06:41:04;6.50;99.90
2106;DHT22;1059;52.548;13.408;2023-01-15T06:43:52;6.60;99.90
2106;DHT22;1059;52.548;13.408;2023-01-15T06:46:39;6.60;99.90
2106;DHT22;1059;52.548;13.408;2023-01-15T06:49:26;6.60;99.90
2106;DHT22;1059;52.548;13.408;2023-01-15T06:51:53;6.60;99.90
2106;DHT22;1059;52.548;13.408;2023-01-15T06:54:20;6.60;99.90
2106;DHT22;1059;52.548;13.408;2023-01-15T06:56:46;6.60;99.90
2106;DHT22;1059;52.548;13.408;2023-01-15T06:59:13;6.50;99.90
2106;DHT22;1059;52.548;13.408;2023-01-15T07:01:41;6.50;99.90
2106;DHT22;1059;52.548;13.408;2023-01-15T07:04:08;6.50;99.90
2106;DHT22;1059;52.548;13.408;2023-01-15T07:06:35;6.50;99.90
2106;DHT22;1059;52.548;13.408;2023-01-15T07:09:03;6.50;99.90
2106;DHT22;1059;52.548;13.408;2023-01-15T07:11:30;6.50;99.90
2106;DHT22;1059;52.548;13.408;2023-01-15T07:13:57;6.50;99.90
2106;DHT22;1059;52.548;13.408;2023-01-15T07:16:31;6.50;99.90
2106;DHT22;1059;52.548;13.408;2023-01-15T07:18:59;6.50;99.90
2106;DHT22;1059;52.548;13.408;2023-01-15T07:21:26;6.50;99.90
2106;DHT22;1059;52.548;13.408;2023-01-15T07:23:54;6.60;99.90
2106;DHT22;1059;52.548;13.408;2023-01-15T07:26:23;6.50;99.90
2106;DHT22;1059;52.548;13.408;2023-01-15T07:28:50;6.50;99.90
2106;DHT22;1059;52.548;13.408;2023-01-15T07:31:17;6.50;99.90
2106;DHT22;1059;52.548;13.408;2023-01-15T07:33:44;6.50;99.90
2106;DHT22;1059;52.548;13.408;2023-01-15T07:36:12;6.50;99.90
2106;DHT22;1059;52.548;13.408;2023-01-15T07:38:39;6.50;99.90
2106;DHT22;1059;52.548;13.408;2023-01-15T07:41:06;6.50;99.90
2106;DHT22;1059;52.548;13.408;2023-01-15T07:43:50;6.40;99.90
2106;DHT22;1059;52.548;13.408;2023-01-15T07:46:34;6.40;99.90
2106;DHT22;1059;52.548;13.408;2023-01-15T07:49:18;6.50;99.90
2106;DHT22;1059;52.548;13.408;2023-01-15T07:52:04;6.50;99.90
2106;DHT22;1059;52.548;13.408;2023-01-15T07:54:30;6.50;99.90
2106;DHT22;1059;52.548;13.408;2023-01-15T07:56:57;6.50;99.90
2106;DHT22;1059;52.548;13.408;2023-01-15T07:59:24;6.50;99.90
2106;DHT22;1059;52.548;13.408;2023-01-15T08:01:51;6.50;99.90
2106;DHT22;1059;52.548;13.408;2023-01-15T08:04:18;6.50;99.90
2106;DHT22;1059;52.548;13.408;2023-01-15T08:06:44;6.50;99.90
2106;DHT22;1059;52.548;13.408;2023-01-15T08:09:13;6.50;99.90
2106;DHT22;1059;52.548;13.408;2023-01-15T08:11:40;6.50;99.90
2106;DHT22;1059;52.548;13.408;2023-01-15T08:14:24;6.50;99.90
2106;DHT22;1059;52.548;13.408;2023-01-15T08:17:08;6.50;99.90
2106;DHT22;1059;52.548;13.408;2023-01-15T08:19:35;6.50;99.90
2106;DHT22;1059;52.548;13.408;2023-01-15T08:22:01;6.50;99.90
2106;DHT22;1059;52.548;13.408;2023-01-15T08:24:30;6.50;99.90
2106;DHT22;1059;52.548;13.408;2023-01-15T08:26:56;6.50;99.90
2106;DHT22;1059;52.548;13.408;2023-01-15T08:29:23;6.50;99.90
2106;DHT22;1059;52.548;13.408;2023-01-15T08:31:50;6.50;99.90
2106;DHT22;1059;52.548;13.408;2023-01-15T08:34:17;6.50;99.90
2106;DHT22;1059;52.548;13.408;2023-01-15T08:36:44;6.50;99.90
2106;DHT22;1059;52.548;13.408;2023-01-15T08:39:11;6.50;99.90
2106;DHT22;1059;52.548;13.408;2023-01-15T08:41:39;6.50;99.90
2106;DHT22;1059;52.548;13.408;2023-01-15T08:44:06;6.60;99.90
2106;DHT22;1059;52.548;13.408;2023-01-15T08:46:33;6.60;99.90
2106;DHT22;1059;52.548;13.408;2023-01-15T08:49:00;6.60;99.90
2106;DHT22;1059;52.548;13.408;2023-01-15T08:51:26;6.60;99.90
2106;DHT22;1059;52.548;13.408;2023-01-15T08:53:53;6.70;99.90
2106;DHT22;1059;52.548;13.408;2023-01-15T08:56:20;6.60;99.90
2106;DHT22;1059;52.548;13.408;2023-01-15T08:58:48;6.70;99.90
2106;DHT22;1059;52.548;13.408;2023-01-15T09:01:15;6.60;99.90
2106;DHT22;1059;52.548;13.408;2023-01-15T09:03:42;6.70;99.90
2106;DHT22;1059;52.548;13.408;2023-01-15T09:06:09;6.70;99.90
2106;DHT22;1059;52.548;13.408;2023-01-15T09:08:38;6.70;99.90
2106;DHT22;1059;52.548;13.408;2023-01-15T09:11:06;6.80;99.90
2106;DHT22;1059;52.548;13.408;2023-01-15T09:13:35;6.70;99.90
2106;DHT22;1059;52.548;13.408;2023-01-15T09:16:05;6.70;99.90
2106;DHT22;1059;52.548;13.408;2023-01-15T09:18:35;6.70;99.90
2106;DHT22;1059;52.548;13.408;2023-01-15T09:21:03;6.80;99.90
2106;DHT22;1059;52.548;13.408;2023-01-15T09:23:30;6.80;99.90
2106;DHT22;1059;52.548;13.408;2023-01-15T09:25:58;6.80;99.90
2106;DHT22;1059;52.548;13.408;2023-01-15T09:28:26;6.80;99.90
2106;DHT22;1059;52.548;13.408;2023-01-15T09:30:53;6.80;99.90
2106;DHT22;1059;52.548;13.408;2023-01-15T09:33:22;6.80;99.90
2106;DHT22;1059;52.548;13.408;2023-01-15T09:35:48;6.90;99.90
2106;DHT22;1059;52.548;13.408;2023-01-15T09:38:17;6.90;99.90
2106;DHT22;1059;52.548;13.408;2023-01-15T09:40:47;6.90;99.90
2106;DHT22;1059;52.548;13.408;2023-01-15T09:43:26;6.90;99.90
2106;DHT22;1059;52.548;13.408;2023-01-15T09:45:58;6.90;99.90
2106;DHT22;1059;52.548;13.408;2023-01-15T09:48:37;6.90;99.90
2106;DHT22;1059;52.548;13.408;2023-01-15T09:51:15;6.90;99.90
2106;DHT22;1059;52.548;13.408;2023-01-15T09:54:13;6.90;99.90
2106;DHT22;1059;52.548;13.408;2023-01-15T09:56:42;6.90;99.90
2106;DHT22;1059;52.548;13.408;2023-01-15T09:59:18;7.00;99.90
2106;DHT22;1059;52.548;13.408;2023-01-15T10:01:46;7.00;99.90
2106;DHT22;1059;52.548;13.408;2023-01-15T10:04:31;7.10;99.90
2106;DHT22;1059;52.548;13.408;2023-01-15T10:07:07;7.10;99.90
2106;DHT22;1059;52.548;13.408;2023-01-15T10:09:37;7.20;99.90
2106;DHT22;1059;52.548;13.408;2023-01-15T10:12:12;7.20;99.90
2106;DHT22;1059;52.548;13.408;2023-01-15T10:15:04;7.20;99.90
2106;DHT22;1059;52.548;13.408;2023-01-15T10:17:38;7.20;99.90
2106;DHT22;1059;52.548;13.408;2023-01-15T10:20:13;7.20;99.90
2106;DHT22;1059;52.548;13.408;2023-01-15T10:22:57;7.20;99.90
2106;DHT22;1059;52.548;13.408;2023-01-15T10:25:32;7.30;99.90
2106;DHT22;1059;52.548;13.408;2023-01-15T10:28:07;7.30;99.90
2106;DHT22;1059;52.548;13.408;2023-01-15T10:30:42;7.40;99.90
2106;DHT22;1059;52.548;13.408;2023-01-15T10:33:26;7.40;99.90
2106;DHT22;1059;52.548;13.408;2023-01-15T10:35:59;7.40;99.90
2106;DHT22;1059;52.548;13.408;2023-01-15T10:38:32;7.50;99.90
2106;DHT22;1059;52.548;13.408;2023-01-15T10:41:20;7.50;99.90
2106;DHT22;1059;52.548;13.408;2023-01-15T10:43:52;7.50;99.90
2106;DHT22;1059;52.548;13.408;2023-01-15T10:46:23;7.60;99.90
2106;DHT22;1059;52.548;13.408;2023-01-15T10:48:54;7.60;99.90
2106;DHT22;1059;52.548;13.408;2023-01-15T10:51:25;7.60;99.90
2106;DHT22;1059;52.548;13.408;2023-01-15T10:53:57;7.60;99.90
2106;DHT22;1059;52.548;13.408;2023-01-15T10:56:31;7.60;99.90
2106;DHT22;1059;52.548;13.408;2023-01-15T10:59:03;7.60;99.90
2106;DHT22;1059;52.548;13.408;2023-01-15T11:01:33;7.70;99.90
2106;DHT22;1059;52.548;13.408;2023-01-15T11:04:01;7.60;99.90
2106;DHT22;1059;52.548;13.408;2023-01-15T11:06:30;7.70;99.90
2106;DHT22;1059;52.548;13.408;2023-01-15T11:08:58;7.70;99.90
2106;DHT22;1059;52.548;13.408;2023-01-15T11:11:30;7.80;99.90
2106;DHT22;1059;52.548;13.408;2023-01-15T11:14:34;7.80;99.90
2106;DHT22;1059;52.548;13.408;2023-01-15T11:17:19;7.90;99.90
2106;DHT22;1059;52.548;13.408;2023-01-15T11:20:25;7.90;99.90
2106;DHT22;1059;52.548;13.408;2023-01-15T11:22:55;7.90;99.90
2106;DHT22;1059;52.548;13.408;2023-01-15T11:25:27;7.80;99.90
2106;DHT22;1059;52.548;13.408;2023-01-15T11:27:56;7.80;99.90
2106;DHT22;1059;52.548;13.408;2023-01-15T11:30:28;7.80;99.90
2106;DHT22;1059;52.548;13.408;2023-01-15T11:32:57;7.80;99.90
2106;DHT22;1059;52.548;13.408;2023-01-15T11:35:25;7.80;99.90
2106;DHT22;1059;52.548;13.408;2023-01-15T11:38:05;7.90;99.90
2106;DHT22;1059;52.548;13.408;2023-01-15T11:40:32;7.80;99.90
2106;DHT22;1059;52.548;13.408;2023-01-15T11:43:01;7.80;99.90
2106;DHT22;1059;52.548;13.408;2023-01-15T11:45:47;7.80;99.90
2106;DHT22;1059;52.548;13.408;2023-01-15T11:48:33;7.80;99.90
2106;DHT22;1059;52.548;13.408;2023-01-15T11:51:19;7.80;99.90
2106;DHT22;1059;52.548;13.408;2023-01-15T11:53:49;7.80;99.90
2106;DHT22;1059;52.548;13.408;2023-01-15T11:56:19;7.80;99.90
2106;DHT22;1059;52.548;13.408;2023-01-15T11:58:50;7.80;99.90
2106;DHT22;1059;52.548;13.408;2023-01-15T12:01:21;7.90;99.90
2106;DHT22;1059;52.548;13.408;2023-01-15T12:03:50;7.80;99.90
2106;DHT22;1059;52.548;13.408;2023-01-15T12:06:18;7.80;99.90
2106;DHT22;1059;52.548;13.408;2023-01-15T12:08:49;7.80;99.90
2106;DHT22;1059;52.548;13.408;2023-01-15T12:11:29;7.80;99.90
2106;DHT22;1059;52.548;13.408;2023-01-15T12:14:10;7.80;99.90
2106;DHT22;1059;52.548;13.408;2023-01-15T12:16:47;7.90;99.90
2106;DHT22;1059;52.548;13.408;2023-01-15T12:19:19;7.80;99.90
2106;DHT22;1059;52.548;13.408;2023-01-15T12:22:09;7.80;99.90
2106;DHT22;1059;52.548;13.408;2023-01-15T12:25:02;7.80;99.90
2106;DHT22;1059;52.548;13.408;2023-01-15T12:27:53;7.80;99.90
2106;DHT22;1059;52.548;13.408;2023-01-15T12:30:27;7.80;99.90
2106;DHT22;1059;52.548;13.408;2023-01-15T12:33:05;7.80;99.90
2106;DHT22;1059;52.548;13.408;2023-01-15T12:35:38;7.70;99.90
2106;DHT22;1059;52.548;13.408;2023-01-15T12:38:12;7.80;99.90
2106;DHT22;1059;52.548;13.408;2023-01-15T12:40:46;7.90;99.90
2106;DHT22;1059;52.548;13.408;2023-01-15T12:43:20;8.00;99.90
2106;DHT22;1059;52.548;13.408;2023-01-15T12:46:11;8.20;99.90
2106;DHT22;1059;52.548;13.408;2023-01-15T12:48:42;8.50;99.90
2106;DHT22;1059;52.548;13.408;2023-01-15T12:51:13;8.40;99.90
2106;DHT22;1059;52.548;13.408;2023-01-15T12:53:46;8.40;99.90
2106;DHT22;1059;52.548;13.408;2023-01-15T12:56:20;8.40;99.90
2106;DHT22;1059;52.548;13.408;2023-01-15T12:58:50;8.20;99.90
2106;DHT22;1059;52.548;13.408;2023-01-15T13:01:22;8.10;99.90
2106;DHT22;1059;52.548;13.408;2023-01-15T13:03:59;8.00;99.90
2106;DHT22;1059;52.548;13.408;2023-01-15T13:06:30;7.90;99.90
2106;DHT22;1059;52.548;13.408;2023-01-15T13:09:02;7.90;99.90
2106;DHT22;1059;52.548;13.408;2023-01-15T13:11:31;8.00;99.90
2106;DHT22;1059;52.548;13.408;2023-01-15T13:13:58;8.00;99.90
2106;DHT22;1059;52.548;13.408;2023-01-15T13:16:36;8.20;99.90
2106;DHT22;1059;52.548;13.408;2023-01-15T13:19:19;8.50;99.90
2106;DHT22;1059;52.548;13.408;2023-01-15T13:21:49;9.10;99.90
2106;DHT22;1059;52.548;13.408;2023-01-15T13:24:53;9.80;99.90
2106;DHT22;1059;52.548;13.408;2023-01-15T13:30:23;10.90;99.90
2106;DHT22;1059;52.548;13.408;2023-01-15T13:32:56;11.20;99.90
2106;DHT22;1059;52.548;13.408;2023-01-15T13:35:29;11.20;99.90
2106;DHT22;1059;52.548;13.408;2023-01-15T13:37:58;10.70;99.90
2106;DHT22;1059;52.548;13.408;2023-01-15T13:40:28;10.70;99.90
2106;DHT22;1059;52.548;13.408;2023-01-15T13:42:58;10.60;99.90
2106;DHT22;1059;52.548;13.408;2023-01-15T13:45:33;10.30;99.90
2106;DHT22;1059;52.548;13.408;2023-01-15T13:48:04;9.70;99.90
2106;DHT22;1059;52.548;13.408;2023-01-15T13:50:34;9.20;99.90
2106;DHT22;1059;52.548;13.408;2023-01-15T13:53:05;8.90;99.90
2106;DHT22;1059;52.548;13.408;2023-01-15T13:55:34;8.60;99.90
2106;DHT22;1059;52.548;13.408;2023-01-15T13:58:18;8.40;99.90
2106;DHT22;1059;52.548;13.408;2023-01-15T14:00:45;8.40;99.90
2106;DHT22;1059;52.548;13.408;2023-01-15T14:03:26;9.00;99.90
2106;DHT22;1059;52.548;13.408;2023-01-15T14:05:54;9.50;99.90
2106;DHT22;1059;52.548;13.408;2023-01-15T14:08:25;10.10;99.90
2106;DHT22;1059;52.548;13.408;2023-01-15T14:10:53;10.50;99.90
2106;DHT22;1059;52.548;13.408;2023-01-15T14:14:01;10.80;99.90
2106;DHT22;1059;52.548;13.408;2023-01-15T14:16:45;11.20;99.90
2106;DHT22;1059;52.548;13.408;2023-01-15T14:19:53;11.50;99.90
2106;DHT22;1059;52.548;13.408;2023-01-15T14:22:39;11.70;99.90
2106;DHT22;1059;52.548;13.408;2023-01-15T14:25:23;12.00;99.90
2106;DHT22;1059;52.548;13.408;2023-01-15T14:28:23;11.80;99.90
2106;DHT22;1059;52.548;13.408;2023-01-15T14:33:54;11.50;99.90
2106;DHT22;1059;52.548;13.408;2023-01-15T14:36:26;11.40;99.90
2106;DHT22;1059;52.548;13.408;2023-01-15T14:38:57;11.20;99.90
2106;DHT22;1059;52.548;13.408;2023-01-15T14:41:26;11.30;99.90
2106;DHT22;1059;52.548;13.408;2023-01-15T14:43:54;11.10;99.90
2106;DHT22;1059;52.548;13.408;2023-01-15T14:46:26;10.90;99.90
2106;DHT22;1059;52.548;13.408;2023-01-15T14:48:54;10.50;99.90
2106;DHT22;1059;52.548;13.408;2023-01-15T14:51:24;9.70;99.90
2106;DHT22;1059;52.548;13.408;2023-01-15T14:53:54;9.30;99.90
2106;DHT22;1059;52.548;13.408;2023-01-15T14:56:26;8.90;99.90
2106;DHT22;1059;52.548;13.408;2023-01-15T14:58:57;8.60;99.90
2106;DHT22;1059;52.548;13.408;2023-01-15T15:01:40;8.30;99.90
2106;DHT22;1059;52.548;13.408;2023-01-15T15:04:14;8.20;99.90
2106;DHT22;1059;52.548;13.408;2023-01-15T15:06:48;8.00;99.90
2106;DHT22;1059;52.548;13.408;2023-01-15T15:09:26;7.90;99.90
2106;DHT22;1059;52.548;13.408;2023-01-15T15:12:00;7.70;99.90
2106;DHT22;1059;52.548;13.408;2023-01-15T15:14:52;7.60;99.90
2106;DHT22;1059;52.548;13.408;2023-01-15T15:17:29;7.50;99.90
2106;DHT22;1059;52.548;13.408;2023-01-15T15:20:15;7.40;99.90
2106;DHT22;1059;52.548;13.408;2023-01-15T15:22:43;7.40;99.90
2106;DHT22;1059;52.548;13.408;2023-01-15T15:25:18;7.30;99.90
2106;DHT22;1059;52.548;13.408;2023-01-15T15:27:47;7.20;99.90
2106;DHT22;1059;52.548;13.408;2023-01-15T15:30:14;7.20;99.90
2106;DHT22;1059;52.548;13.408;2023-01-15T15:32:46;7.10;99.90
2106;DHT22;1059;52.548;13.408;2023-01-15T15:35:23;7.10;99.90
2106;DHT22;1059;52.548;13.408;2023-01-15T15:37:52;7.00;99.90
2106;DHT22;1059;52.548;13.408;2023-01-15T15:40:27;7.00;99.90
2106;DHT22;1059;52.548;13.408;2023-01-15T15:43:02;7.00;99.90
2106;DHT22;1059;52.548;13.408;2023-01-15T15:45:52;6.90;99.90
2106;DHT22;1059;52.548;13.408;2023-01-15T15:48:38;6.90;99.90
2106;DHT22;1059;52.548;13.408;2023-01-15T15:51:26;6.90;99.90
2106;DHT22;1059;52.548;13.408;2023-01-15T15:54:18;6.90;99.90
2106;DHT22;1059;52.548;13.408;2023-01-15T15:56:55;6.80;99.90
2106;DHT22;1059;52.548;13.408;2023-01-15T15:59:31;6.80;99.90
2106;DHT22;1059;52.548;13.408;2023-01-15T16:02:09;6.80;99.90
2106;DHT22;1059;52.548;13.408;2023-01-15T16:04:45;6.70;99.90
2106;DHT22;1059;52.548;13.408;2023-01-15T16:07:13;6.70;99.90
2106;DHT22;1059;52.548;13.408;2023-01-15T16:09:40;6.70;99.90
2106;DHT22;1059;52.548;13.408;2023-01-15T16:12:11;6.70;99.90
2106;DHT22;1059;52.548;13.408;2023-01-15T16:14:39;6.60;99.90
2106;DHT22;1059;52.548;13.408;2023-01-15T16:17:08;6.60;99.90
2106;DHT22;1059;52.548;13.408;2023-01-15T16:19:36;6.50;99.90
2106;DHT22;1059;52.548;13.408;2023-01-15T16:22:05;6.50;99.90
2106;DHT22;1059;52.548;13.408;2023-01-15T16:24:33;6.50;99.90
2106;DHT22;1059;52.548;13.408;2023-01-15T16:27:03;6.40;99.90
2106;DHT22;1059;52.548;13.408;2023-01-15T16:29:33;6.40;99.90
2106;DHT22;1059;52.548;13.408;2023-01-15T16:32:01;6.40;99.90
2106;DHT22;1059;52.548;13.408;2023-01-15T16:34:35;6.40;99.90
2106;DHT22;1059;52.548;13.408;2023-01-15T16:37:02;6.30;99.90